sensor_id;sensor_type;location;lat;lon;timestamp;pressure;altitude;pressure_sealevel;temperature;humidity
44198;BME280;30157;55.512;37.764;2023-01-28T00:00:26;100651.53;;;-2.73;96.69
44198;BME280;30157;55.512;37.764;2023-01-28T00:02:52;100658.75;;;-2.66;96.56
44198;BME280;30157;55.512;37.764;2023-01-28T00:05:18;100677.22;;;-2.55;96.74
44198;BME280;30157;55.512;37.764;2023-01-28T00:07:43;100671.72;;;-2.61;96.42
44198;BME280;30157;55.512;37.764;2023-01-28T00:10:09;100672.91;;;-2.56;96.74
44198;BME280;30157;55.512;37.764;2023-01-28T00:12:35;100680.44;;;-2.58;96.60
44198;BME280;30157;55.512;37.764;2023-01-28T00:15:01;100662.84;;;-2.68;96.81
44198;BME280;30157;55.512;37.764;2023-01-28T00:17:29;100571.69;;;-3.18;96.65
44198;BME280;30157;55.512;37.764;2023-01-28T00:19:54;100672.53;;;-2.62;97.10
44198;BME280;30157;55.512;37.764;2023-01-28T00:22:20;100580.75;;;-3.09;96.96
44198;BME280;30157;55.512;37.764;2023-01-28T00:24:46;100624.88;;;-2.80;97.02
44198;BME280;30157;55.512;37.764;2023-01-28T00:27:12;100671.44;;;-2.53;96.91
44198;BME280;30157;55.512;37.764;2023-01-28T00:29:38;100665.75;;;-2.48;97.11
44198;BME280;30157;55.512;37.764;2023-01-28T00:32:04;100666.94;;;-2.57;96.67
44198;BME280;30157;55.512;37.764;2023-01-28T00:34:30;100669.38;;;-2.45;96.54
44198;BME280;30157;55.512;37.764;2023-01-28T00:36:56;100562.88;;;-3.10;96.27
44198;BME280;30157;55.512;37.764;2023-01-28T00:39:23;100628.84;;;-2.70;96.49
44198;BME280;30157;55.512;37.764;2023-01-28T00:41:52;100578.97;;;-2.96;96.65
44198;BME280;30157;55.512;37.764;2023-01-28T00:44:19;100570.28;;;-3.00;96.71
44198;BME280;30157;55.512;37.764;2023-01-28T00:46:45;100624.63;;;-2.70;96.58
44198;BME280;30157;55.512;37.764;2023-01-28T00:49:11;100672.34;;;-2.37;97.07
44198;BME280;30157;55.512;37.764;2023-01-28T00:51:37;100568.63;;;-2.99;96.58
44198;BME280;30157;55.512;37.764;2023-01-28T00:54:02;100546.09;;;-3.08;96.85
44198;BME280;30157;55.512;37.764;2023-01-28T00:56:28;100668.53;;;-2.30;96.80
44198;BME280;30157;55.512;37.764;2023-01-28T00:58:54;100675.38;;;-2.29;97.01
44198;BME280;30157;55.512;37.764;2023-01-28T01:01:25;100679.69;;;-2.28;96.80
44198;BME280;30157;55.512;37.764;2023-01-28T01:03:52;100578.75;;;-2.86;96.81
44198;BME280;30157;55.512;37.764;2023-01-28T01:08:58;100645.81;;;-2.42;97.31
44198;BME280;30157;55.512;37.764;2023-01-28T01:11:24;100687.09;;;-2.18;97.16
44198;BME280;30157;55.512;37.764;2023-01-28T01:13:55;100657.41;;;-2.32;97.48
44198;BME280;30157;55.512;37.764;2023-01-28T01:16:27;100569.56;;;-2.84;97.35
44198;BME280;30157;55.512;37.764;2023-01-28T01:18:54;100677.69;;;-2.19;97.62
44198;BME280;30157;55.512;37.764;2023-01-28T01:21:23;100656.63;;;-2.31;97.81
44198;BME280;30157;55.512;37.764;2023-01-28T01:23:49;100573.75;;;-2.84;97.84
44198;BME280;30157;55.512;37.764;2023-01-28T01:26:16;100666.88;;;-2.30;98.00
44198;BME280;30157;55.512;37.764;2023-01-28T01:28:42;100571.31;;;-2.83;98.27
44198;BME280;30157;55.512;37.764;2023-01-28T01:31:16;100677.81;;;-2.31;97.78
44198;BME280;30157;55.512;37.764;2023-01-28T01:33:44;100686.06;;;-2.35;98.29
44198;BME280;30157;55.512;37.764;2023-01-28T01:36:12;100669.63;;;-2.40;98.32
44198;BME280;30157;55.512;37.764;2023-01-28T01:38:38;100592.22;;;-2.87;98.04
44198;BME280;30157;55.512;37.764;2023-01-28T01:41:06;100656.09;;;-2.54;97.94
44198;BME280;30157;55.512;37.764;2023-01-28T01:46:37;100594.97;;;-2.84;98.10
44198;BME280;30157;55.512;37.764;2023-01-28T01:51:38;100617.94;;;-2.82;98.02
44198;BME280;30157;55.512;37.764;2023-01-28T01:54:05;100593.75;;;-3.04;98.06
44198;BME280;30157;55.512;37.764;2023-01-28T01:56:35;100657.19;;;-2.64;98.00
44198;BME280;30157;55.512;37.764;2023-01-28T01:59:04;100675.84;;;-2.50;98.10
44198;BME280;30157;55.512;37.764;2023-01-28T02:01:31;100675.84;;;-2.50;98.08
44198;BME280;30157;55.512;37.764;2023-01-28T02:04:04;100682.69;;;-2.49;98.17
44198;BME280;30157;55.512;37.764;2023-01-28T02:06:33;100676.69;;;-2.49;98.41
44198;BME280;30157;55.512;37.764;2023-01-28T02:08:59;100641.66;;;-2.68;98.24
44198;BME280;30157;55.512;37.764;2023-01-28T02:11:29;100671.44;;;-2.53;98.40
44198;BME280;30157;55.512;37.764;2023-01-28T02:13:58;100634.63;;;-2.73;97.94
44198;BME280;30157;55.512;37.764;2023-01-28T02:16:26;100671.53;;;-2.51;98.11
44198;BME280;30157;55.512;37.764;2023-01-28T02:18:52;100681.69;;;-2.51;97.95
44198;BME280;30157;55.512;37.764;2023-01-28T02:23:49;100678.19;;;-2.53;98.01
44198;BME280;30157;55.512;37.764;2023-01-28T02:31:48;100682.03;;;-2.60;97.72
44198;BME280;30157;55.512;37.764;2023-01-28T02:40:17;100576.88;;;-3.30;97.16
44198;BME280;30157;55.512;37.764;2023-01-28T02:42:44;100681.34;;;-2.71;97.23
44198;BME280;30157;55.512;37.764;2023-01-28T02:47:43;100695.31;;;-2.64;97.05
44198;BME280;30157;55.512;37.764;2023-01-28T02:53:30;100694.59;;;-2.61;97.40
44198;BME280;30157;55.512;37.764;2023-01-28T02:56:23;100572.38;;;-3.34;97.47
44198;BME280;30157;55.512;37.764;2023-01-28T02:59:11;100707.44;;;-2.60;97.47
44198;BME280;30157;55.512;37.764;2023-01-28T03:05:13;100701.63;;;-2.57;97.71
44198;BME280;30157;55.512;37.764;2023-01-28T03:07:40;100563.69;;;-3.38;97.59
44198;BME280;30157;55.512;37.764;2023-01-28T03:10:09;100576.09;;;-3.29;97.52
44198;BME280;30157;55.512;37.764;2023-01-28T03:12:39;100706.16;;;-2.53;97.59
44198;BME280;30157;55.512;37.764;2023-01-28T03:15:43;100619.84;;;-3.07;97.28
44198;BME280;30157;55.512;37.764;2023-01-28T03:18:39;100710.44;;;-2.52;97.34
44198;BME280;30157;55.512;37.764;2023-01-28T03:21:34;100666.66;;;-2.75;97.32
44198;BME280;30157;55.512;37.764;2023-01-28T03:24:23;100676.16;;;-2.72;97.11
44198;BME280;30157;55.512;37.764;2023-01-28T03:30:20;100705.75;;;-2.59;97.13
44198;BME280;30157;55.512;37.764;2023-01-28T03:33:11;100687.22;;;-2.72;97.18
44198;BME280;30157;55.512;37.764;2023-01-28T03:35:55;100715.16;;;-2.58;96.40
44198;BME280;30157;55.512;37.764;2023-01-28T03:38:41;100714.84;;;-2.63;96.29
44198;BME280;30157;55.512;37.764;2023-01-28T03:41:18;100699.91;;;-2.72;96.30
44198;BME280;30157;55.512;37.764;2023-01-28T03:43:46;100692.00;;;-2.76;96.30
44198;BME280;30157;55.512;37.764;2023-01-28T03:46:12;100701.47;;;-2.74;95.39
44198;BME280;30157;55.512;37.764;2023-01-28T03:48:38;100611.91;;;-3.25;94.96
44198;BME280;30157;55.512;37.764;2023-01-28T03:51:05;100681.06;;;-2.89;95.06
44198;BME280;30157;55.512;37.764;2023-01-28T03:53:32;100604.78;;;-3.30;95.31
44198;BME280;30157;55.512;37.764;2023-01-28T03:55:57;100681.84;;;-2.90;95.22
44198;BME280;30157;55.512;37.764;2023-01-28T03:58:24;100717.13;;;-2.67;95.38
44198;BME280;30157;55.512;37.764;2023-01-28T04:01:09;100600.81;;;-3.40;95.05
44198;BME280;30157;55.512;37.764;2023-01-28T04:03:35;100722.03;;;-2.71;94.88
44198;BME280;30157;55.512;37.764;2023-01-28T04:06:08;100697.38;;;-2.85;95.29
44198;BME280;30157;55.512;37.764;2023-01-28T04:08:52;100718.50;;;-2.73;94.89
44198;BME280;30157;55.512;37.764;2023-01-28T04:11:30;100626.88;;;-3.29;95.11
44198;BME280;30157;55.512;37.764;2023-01-28T04:13:59;100705.69;;;-2.88;94.93
44198;BME280;30157;55.512;37.764;2023-01-28T04:16:30;100728.66;;;-2.73;95.06
44198;BME280;30157;55.512;37.764;2023-01-28T04:18:55;100655.66;;;-3.15;95.09
44198;BME280;30157;55.512;37.764;2023-01-28T04:21:22;100722.72;;;-2.73;94.92
44198;BME280;30157;55.512;37.764;2023-01-28T04:23:48;100717.72;;;-2.72;95.32
44198;BME280;30157;55.512;37.764;2023-01-28T04:26:13;100596.31;;;-3.44;95.19
44198;BME280;30157;55.512;37.764;2023-01-28T04:28:39;100729.75;;;-2.69;95.24
44198;BME280;30157;55.512;37.764;2023-01-28T04:31:05;100720.94;;;-2.74;95.34
44198;BME280;30157;55.512;37.764;2023-01-28T04:33:30;100729.81;;;-2.67;95.48
44198;BME280;30157;55.512;37.764;2023-01-28T04:36:01;100736.56;;;-2.68;95.18
44198;BME280;30157;55.512;37.764;2023-01-28T04:38:43;100731.38;;;-2.70;95.04
44198;BME280;30157;55.512;37.764;2023-01-28T04:41:26;100744.91;;;-2.71;95.00
44198;BME280;30157;55.512;37.764;2023-01-28T04:43:55;100746.63;;;-2.70;94.96
44198;BME280;30157;55.512;37.764;2023-01-28T04:46:20;100713.31;;;-2.88;94.49
44198;BME280;30157;55.512;37.764;2023-01-28T04:48:53;100582.16;;;-3.67;94.52
44198;BME280;30157;55.512;37.764;2023-01-28T04:51:39;100734.16;;;-2.80;95.00
44198;BME280;30157;55.512;37.764;2023-01-28T04:54:24;100744.69;;;-2.74;94.71
44198;BME280;30157;55.512;37.764;2023-01-28T04:56:52;100708.81;;;-2.92;94.53
44198;BME280;30157;55.512;37.764;2023-01-28T04:59:18;100650.59;;;-3.29;94.59
44198;BME280;30157;55.512;37.764;2023-01-28T05:01:44;100690.84;;;-3.08;94.31
44198;BME280;30157;55.512;37.764;2023-01-28T05:04:10;100743.41;;;-2.80;93.88
44198;BME280;30157;55.512;37.764;2023-01-28T05:06:37;100745.66;;;-2.85;93.33
44198;BME280;30157;55.512;37.764;2023-01-28T05:09:08;100748.78;;;-2.89;93.31
44198;BME280;30157;55.512;37.764;2023-01-28T05:11:34;100718.28;;;-3.16;93.59
44198;BME280;30157;55.512;37.764;2023-01-28T05:14:03;100757.00;;;-2.93;93.86
44198;BME280;30157;55.512;37.764;2023-01-28T05:16:41;100702.47;;;-3.25;93.78
44198;BME280;30157;55.512;37.764;2023-01-28T05:19:07;100741.84;;;-3.05;93.24
44198;BME280;30157;55.512;37.764;2023-01-28T05:21:37;100760.81;;;-3.00;92.77
44198;BME280;30157;55.512;37.764;2023-01-28T05:24:08;100752.88;;;-3.05;93.04
44198;BME280;30157;55.512;37.764;2023-01-28T05:26:33;100758.03;;;-3.03;92.57
44198;BME280;30157;55.512;37.764;2023-01-28T05:29:02;100738.59;;;-3.16;92.76
44198;BME280;30157;55.512;37.764;2023-01-28T05:31:28;100728.25;;;-3.19;92.74
44198;BME280;30157;55.512;37.764;2023-01-28T05:33:54;100654.47;;;-3.61;92.72
44198;BME280;30157;55.512;37.764;2023-01-28T05:36:21;100663.06;;;-3.59;92.46
44198;BME280;30157;55.512;37.764;2023-01-28T05:38:47;100751.00;;;-3.07;92.50
44198;BME280;30157;55.512;37.764;2023-01-28T05:41:12;100749.72;;;-3.14;92.04
44198;BME280;30157;55.512;37.764;2023-01-28T05:43:40;100683.38;;;-3.59;91.98
44198;BME280;30157;55.512;37.764;2023-01-28T05:46:26;100758.59;;;-3.21;92.23
44198;BME280;30157;55.512;37.764;2023-01-28T05:49:05;100588.88;;;-4.20;92.50
44198;BME280;30157;55.512;37.764;2023-01-28T05:52:11;100757.91;;;-3.31;92.80
44198;BME280;30157;55.512;37.764;2023-01-28T05:54:38;100760.78;;;-3.13;92.86
44198;BME280;30157;55.512;37.764;2023-01-28T05:57:03;100744.84;;;-3.24;92.60
44198;BME280;30157;55.512;37.764;2023-01-28T05:59:30;100762.72;;;-3.23;92.34
44198;BME280;30157;55.512;37.764;2023-01-28T06:01:57;100761.16;;;-3.21;92.28
44198;BME280;30157;55.512;37.764;2023-01-28T06:04:23;100668.78;;;-3.75;91.74
44198;BME280;30157;55.512;37.764;2023-01-28T06:06:50;100672.22;;;-3.74;91.48
44198;BME280;30157;55.512;37.764;2023-01-28T06:09:16;100663.09;;;-3.84;91.53
44198;BME280;30157;55.512;37.764;2023-01-28T06:11:41;100768.00;;;-3.19;91.43
44198;BME280;30157;55.512;37.764;2023-01-28T06:14:08;100774.66;;;-3.22;91.60
44198;BME280;30157;55.512;37.764;2023-01-28T06:17:02;100721.84;;;-3.52;91.13
44198;BME280;30157;55.512;37.764;2023-01-28T06:19:45;100752.81;;;-3.31;91.37
44198;BME280;30157;55.512;37.764;2023-01-28T06:22:11;100657.06;;;-3.86;91.26
44198;BME280;30157;55.512;37.764;2023-01-28T06:24:37;100774.66;;;-3.22;91.17
44198;BME280;30157;55.512;37.764;2023-01-28T06:27:04;100657.53;;;-3.92;91.03
44198;BME280;30157;55.512;37.764;2023-01-28T06:29:29;100766.53;;;-3.29;90.98
44198;BME280;30157;55.512;37.764;2023-01-28T06:31:55;100778.44;;;-3.28;90.54
44198;BME280;30157;55.512;37.764;2023-01-28T06:34:21;100785.47;;;-3.24;90.94
44198;BME280;30157;55.512;37.764;2023-01-28T06:36:46;100665.16;;;-3.92;90.27
44198;BME280;30157;55.512;37.764;2023-01-28T06:39:12;100775.00;;;-3.29;90.49
44198;BME280;30157;55.512;37.764;2023-01-28T06:41:38;100720.13;;;-3.65;90.74
44198;BME280;30157;55.512;37.764;2023-01-28T06:44:04;100763.38;;;-3.39;90.81
44198;BME280;30157;55.512;37.764;2023-01-28T06:46:29;100767.19;;;-3.32;90.06
44198;BME280;30157;55.512;37.764;2023-01-28T06:48:55;100801.09;;;-3.18;89.94
44198;BME280;30157;55.512;37.764;2023-01-28T06:51:20;100741.25;;;-3.53;89.71
44198;BME280;30157;55.512;37.764;2023-01-28T06:53:46;100797.69;;;-3.18;89.75
44198;BME280;30157;55.512;37.764;2023-01-28T06:56:12;100748.69;;;-3.56;88.96
44198;BME280;30157;55.512;37.764;2023-01-28T06:58:37;100805.81;;;-3.24;88.55
44198;BME280;30157;55.512;37.764;2023-01-28T07:01:03;100803.50;;;-3.33;88.46
44198;BME280;30157;55.512;37.764;2023-01-28T07:03:29;100790.81;;;-3.33;89.06
44198;BME280;30157;55.512;37.764;2023-01-28T07:05:54;100809.63;;;-3.17;88.14
44198;BME280;30157;55.512;37.764;2023-01-28T07:08:20;100812.47;;;-3.13;88.30
44198;BME280;30157;55.512;37.764;2023-01-28T07:10:46;100773.94;;;-3.32;87.91
44198;BME280;30157;55.512;37.764;2023-01-28T07:13:13;100692.00;;;-3.82;87.67
44198;BME280;30157;55.512;37.764;2023-01-28T07:15:39;100769.69;;;-3.45;87.46
44198;BME280;30157;55.512;37.764;2023-01-28T07:18:04;100802.78;;;-3.18;87.33
44198;BME280;30157;55.512;37.764;2023-01-28T07:20:30;100803.44;;;-3.21;86.91
44198;BME280;30157;55.512;37.764;2023-01-28T07:22:56;100676.88;;;-4.06;86.59
44198;BME280;30157;55.512;37.764;2023-01-28T07:25:21;100807.53;;;-3.23;87.04
44198;BME280;30157;55.512;37.764;2023-01-28T07:27:52;100822.00;;;-3.22;87.01
44198;BME280;30157;55.512;37.764;2023-01-28T07:30:19;100532.41;;;-4.81;87.12
44198;BME280;30157;55.512;37.764;2023-01-28T07:32:45;100779.97;;;-3.30;86.79
44198;BME280;30157;55.512;37.764;2023-01-28T07:35:11;100591.09;;;-4.50;86.72
44198;BME280;30157;55.512;37.764;2023-01-28T07:37:38;100821.16;;;-3.09;86.39
44198;BME280;30157;55.512;37.764;2023-01-28T07:40:04;100814.13;;;-3.13;85.70
44198;BME280;30157;55.512;37.764;2023-01-28T07:42:30;100682.91;;;-3.92;85.56
44198;BME280;30157;55.512;37.764;2023-01-28T07:45:01;100773.72;;;-3.35;85.24
44198;BME280;30157;55.512;37.764;2023-01-28T07:47:29;100807.75;;;-3.20;85.22
44198;BME280;30157;55.512;37.764;2023-01-28T07:49:54;100819.78;;;-3.17;85.02
44198;BME280;30157;55.512;37.764;2023-01-28T07:52:20;100764.91;;;-3.41;85.24
44198;BME280;30157;55.512;37.764;2023-01-28T07:54:48;100692.38;;;-3.76;85.27
44198;BME280;30157;55.512;37.764;2023-01-28T07:57:13;100762.78;;;-3.34;84.63
44198;BME280;30157;55.512;37.764;2023-01-28T07:59:39;100758.97;;;-3.41;85.00
44198;BME280;30157;55.512;37.764;2023-01-28T08:02:05;100810.44;;;-3.05;85.02
44198;BME280;30157;55.512;37.764;2023-01-28T08:04:30;100810.53;;;-3.04;85.08
44198;BME280;30157;55.512;37.764;2023-01-28T08:06:56;100683.81;;;-3.78;85.27
44198;BME280;30157;55.512;37.764;2023-01-28T08:09:24;100697.41;;;-3.64;85.51
44198;BME280;30157;55.512;37.764;2023-01-28T08:11:50;100768.50;;;-3.12;84.88
44198;BME280;30157;55.512;37.764;2023-01-28T08:14:15;100714.13;;;-3.54;84.26
44198;BME280;30157;55.512;37.764;2023-01-28T08:16:43;100809.47;;;-2.94;83.53
44198;BME280;30157;55.512;37.764;2023-01-28T08:19:09;100787.38;;;-3.08;83.20
44198;BME280;30157;55.512;37.764;2023-01-28T08:21:35;100693.31;;;-3.62;83.07
44198;BME280;30157;55.512;37.764;2023-01-28T08:24:01;100821.28;;;-2.94;83.33
44198;BME280;30157;55.512;37.764;2023-01-28T08:26:27;100809.34;;;-2.95;83.37
44198;BME280;30157;55.512;37.764;2023-01-28T08:28:52;100777.09;;;-3.10;83.14
44198;BME280;30157;55.512;37.764;2023-01-28T08:31:18;100792.84;;;-3.02;83.10
44198;BME280;30157;55.512;37.764;2023-01-28T08:33:44;100704.09;;;-3.52;83.24
44198;BME280;30157;55.512;37.764;2023-01-28T08:36:09;100686.66;;;-3.60;82.78
44198;BME280;30157;55.512;37.764;2023-01-28T08:38:35;100813.50;;;-2.84;83.36
44198;BME280;30157;55.512;37.764;2023-01-28T08:41:01;100816.13;;;-2.82;82.72
44198;BME280;30157;55.512;37.764;2023-01-28T08:43:27;100811.25;;;-2.79;82.99
44198;BME280;30157;55.512;37.764;2023-01-28T08:45:53;100814.78;;;-2.77;82.92
44198;BME280;30157;55.512;37.764;2023-01-28T08:48:19;100674.00;;;-3.46;82.86
44198;BME280;30157;55.512;37.764;2023-01-28T08:50:45;100751.03;;;-2.94;81.88
44198;BME280;30157;55.512;37.764;2023-01-28T08:53:18;100760.72;;;-2.88;81.53
44198;BME280;30157;55.512;37.764;2023-01-28T08:55:46;100587.66;;;-3.86;80.74
44198;BME280;30157;55.512;37.764;2023-01-28T08:58:14;100793.19;;;-2.71;80.97
44198;BME280;30157;55.512;37.764;2023-01-28T09:00:41;100763.47;;;-2.85;80.97
44198;BME280;30157;55.512;37.764;2023-01-28T09:03:07;100760.13;;;-2.84;81.16
44198;BME280;30157;55.512;37.764;2023-01-28T09:05:34;100796.50;;;-2.72;80.98
44198;BME280;30157;55.512;37.764;2023-01-28T09:08:06;100818.47;;;-2.72;81.24
44198;BME280;30157;55.512;37.764;2023-01-28T09:10:32;100693.84;;;-3.27;81.49
44198;BME280;30157;55.512;37.764;2023-01-28T09:12:58;100752.28;;;-2.87;81.36
44198;BME280;30157;55.512;37.764;2023-01-28T09:15:24;100722.63;;;-3.01;81.32
44198;BME280;30157;55.512;37.764;2023-01-28T09:17:56;100662.09;;;-3.34;81.28
44198;BME280;30157;55.512;37.764;2023-01-28T09:20:22;100747.13;;;-2.75;82.01
44198;BME280;30157;55.512;37.764;2023-01-28T09:22:47;100768.91;;;-2.52;81.28
44198;BME280;30157;55.512;37.764;2023-01-28T09:25:13;100783.19;;;-2.54;81.08
44198;BME280;30157;55.512;37.764;2023-01-28T09:27:39;100767.53;;;-2.60;81.14
44198;BME280;30157;55.512;37.764;2023-01-28T09:30:04;100788.19;;;-2.42;81.06
44198;BME280;30157;55.512;37.764;2023-01-28T09:32:31;100748.78;;;-2.62;80.74
44198;BME280;30157;55.512;37.764;2023-01-28T09:34:57;100789.06;;;-2.42;80.62
44198;BME280;30157;55.512;37.764;2023-01-28T09:37:23;100720.75;;;-2.77;80.70
44198;BME280;30157;55.512;37.764;2023-01-28T09:39:49;100706.38;;;-2.90;80.28
44198;BME280;30157;55.512;37.764;2023-01-28T09:47:55;100751.44;;;-2.61;80.28
44198;BME280;30157;55.512;37.764;2023-01-28T09:53:05;100764.72;;;-2.51;80.14
44198;BME280;30157;55.512;37.764;2023-01-28T09:56:02;100759.41;;;-2.55;80.22
44198;BME280;30157;55.512;37.764;2023-01-28T09:58:28;100765.69;;;-2.49;80.09
44198;BME280;30157;55.512;37.764;2023-01-28T10:04:00;100757.16;;;-2.37;80.53
44198;BME280;30157;55.512;37.764;2023-01-28T10:09:47;100761.19;;;-2.40;80.01
44198;BME280;30157;55.512;37.764;2023-01-28T10:17:40;100756.78;;;-2.43;80.11
44198;BME280;30157;55.512;37.764;2023-01-28T10:20:17;100744.56;;;-2.48;79.91
44198;BME280;30157;55.512;37.764;2023-01-28T10:23:02;100721.78;;;-2.60;79.92
44198;BME280;30157;55.512;37.764;2023-01-28T10:25:30;100661.25;;;-2.94;79.86
44198;BME280;30157;55.512;37.764;2023-01-28T10:27:57;100726.38;;;-2.55;79.57
44198;BME280;30157;55.512;37.764;2023-01-28T10:30:31;100743.00;;;-2.46;80.26
44198;BME280;30157;55.512;37.764;2023-01-28T10:34:00;100746.69;;;-2.41;80.39
44198;BME280;30157;55.512;37.764;2023-01-28T10:35:55;100726.34;;;-2.41;80.60
44198;BME280;30157;55.512;37.764;2023-01-28T10:38:23;100689.16;;;-2.54;80.21
44198;BME280;30157;55.512;37.764;2023-01-28T10:40:50;100619.81;;;-2.93;79.53
44198;BME280;30157;55.512;37.764;2023-01-28T10:43:20;100738.88;;;-2.31;79.94
44198;BME280;30157;55.512;37.764;2023-01-28T10:48:55;100706.91;;;-2.41;79.80
44198;BME280;30157;55.512;37.764;2023-01-28T10:51:37;100714.72;;;-2.38;80.48
44198;BME280;30157;55.512;37.764;2023-01-28T10:54:26;100734.44;;;-2.20;80.43
44198;BME280;30157;55.512;37.764;2023-01-28T10:56:56;100724.84;;;-2.24;80.34
44198;BME280;30157;55.512;37.764;2023-01-28T10:59:29;100738.34;;;-2.25;79.70
44198;BME280;30157;55.512;37.764;2023-01-28T11:02:01;100709.38;;;-2.42;79.75
44198;BME280;30157;55.512;37.764;2023-01-28T11:04:30;100712.00;;;-2.41;80.38
44198;BME280;30157;55.512;37.764;2023-01-28T11:07:05;100747.56;;;-2.27;80.19
44198;BME280;30157;55.512;37.764;2023-01-28T11:09:34;100500.81;;;-3.56;79.79
44198;BME280;30157;55.512;37.764;2023-01-28T11:14:37;100738.44;;;-2.24;80.46
44198;BME280;30157;55.512;37.764;2023-01-28T11:17:04;100734.25;;;-2.23;80.09
44198;BME280;30157;55.512;37.764;2023-01-28T11:19:37;100681.50;;;-2.54;80.40
44198;BME280;30157;55.512;37.764;2023-01-28T11:22:03;100728.38;;;-2.22;80.16
44198;BME280;30157;55.512;37.764;2023-01-28T11:24:31;100717.13;;;-2.26;79.87
44198;BME280;30157;55.512;37.764;2023-01-28T11:27:07;100719.03;;;-2.37;79.60
44198;BME280;30157;55.512;37.764;2023-01-28T11:29:38;100728.22;;;-2.39;80.08
44198;BME280;30157;55.512;37.764;2023-01-28T11:32:04;100717.25;;;-2.38;79.62
44198;BME280;30157;55.512;37.764;2023-01-28T11:34:47;100637.59;;;-2.80;79.73
44198;BME280;30157;55.512;37.764;2023-01-28T11:37:15;100577.34;;;-3.09;79.80
44198;BME280;30157;55.512;37.764;2023-01-28T11:39:41;100695.16;;;-2.39;79.59
44198;BME280;30157;55.512;37.764;2023-01-28T11:42:18;100694.28;;;-2.39;79.64
44198;BME280;30157;55.512;37.764;2023-01-28T11:44:46;100708.34;;;-2.31;79.85
44198;BME280;30157;55.512;37.764;2023-01-28T11:50:03;100593.34;;;-2.97;80.00
44198;BME280;30157;55.512;37.764;2023-01-28T11:52:38;100648.16;;;-2.59;80.25
44198;BME280;30157;55.512;37.764;2023-01-28T11:55:44;100692.47;;;-2.27;80.21
44198;BME280;30157;55.512;37.764;2023-01-28T11:58:37;100684.06;;;-2.26;80.68
44198;BME280;30157;55.512;37.764;2023-01-28T12:01:32;100682.78;;;-2.19;80.08
44198;BME280;30157;55.512;37.764;2023-01-28T12:07:28;100665.19;;;-2.29;80.11
44198;BME280;30157;55.512;37.764;2023-01-28T12:13:06;100673.22;;;-2.23;80.10
44198;BME280;30157;55.512;37.764;2023-01-28T12:15:53;100664.81;;;-2.22;80.09
44198;BME280;30157;55.512;37.764;2023-01-28T12:21:19;100663.94;;;-2.36;79.88
44198;BME280;30157;55.512;37.764;2023-01-28T12:24:09;100544.59;;;-3.05;80.43
44198;BME280;30157;55.512;37.764;2023-01-28T12:29:34;100659.28;;;-2.43;80.19
44198;BME280;30157;55.512;37.764;2023-01-28T12:32:26;100660.06;;;-2.44;80.56
44198;BME280;30157;55.512;37.764;2023-01-28T12:43:05;100649.97;;;-2.43;81.13
44198;BME280;30157;55.512;37.764;2023-01-28T12:45:40;100627.47;;;-2.65;80.86
44198;BME280;30157;55.512;37.764;2023-01-28T12:48:15;100546.69;;;-3.12;80.59
44198;BME280;30157;55.512;37.764;2023-01-28T12:50:52;100382.53;;;-4.09;80.59
44198;BME280;30157;55.512;37.764;2023-01-28T12:56:03;100556.53;;;-3.17;81.22
44198;BME280;30157;55.512;37.764;2023-01-28T12:58:38;100640.44;;;-2.60;81.20
44198;BME280;30157;55.512;37.764;2023-01-28T13:01:07;100533.69;;;-3.30;81.34
44198;BME280;30157;55.512;37.764;2023-01-28T13:06:18;100661.88;;;-2.57;81.39
44198;BME280;30157;55.512;37.764;2023-01-28T13:08:48;100651.78;;;-2.55;81.26
44198;BME280;30157;55.512;37.764;2023-01-28T13:11:16;100630.78;;;-2.66;81.20
44198;BME280;30157;55.512;37.764;2023-01-28T13:13:44;100617.91;;;-2.69;81.63
44198;BME280;30157;55.512;37.764;2023-01-28T13:16:11;100522.09;;;-3.40;81.70
44198;BME280;30157;55.512;37.764;2023-01-28T13:24:05;100517.63;;;-3.44;81.91
44198;BME280;30157;55.512;37.764;2023-01-28T13:26:52;100645.97;;;-2.67;82.59
44198;BME280;30157;55.512;37.764;2023-01-28T13:29:32;100507.56;;;-3.43;81.94
44198;BME280;30157;55.512;37.764;2023-01-28T13:32:01;100634.63;;;-2.73;82.15
44198;BME280;30157;55.512;37.764;2023-01-28T13:34:32;100635.88;;;-2.66;82.36
44198;BME280;30157;55.512;37.764;2023-01-28T13:37:06;100508.72;;;-3.38;82.22
44198;BME280;30157;55.512;37.764;2023-01-28T13:39:34;100628.00;;;-2.84;81.87
44198;BME280;30157;55.512;37.764;2023-01-28T13:42:19;100641.66;;;-2.68;81.99
44198;BME280;30157;55.512;37.764;2023-01-28T13:44:46;100577.03;;;-3.14;82.43
44198;BME280;30157;55.512;37.764;2023-01-28T13:50:24;100546.41;;;-3.30;82.66
44198;BME280;30157;55.512;37.764;2023-01-28T13:53:03;100616.78;;;-2.88;82.90
44198;BME280;30157;55.512;37.764;2023-01-28T13:55:37;100620.56;;;-2.81;83.01
44198;BME280;30157;55.512;37.764;2023-01-28T14:18:37;100566.66;;;-3.04;82.76
44198;BME280;30157;55.512;37.764;2023-01-28T14:21:19;100561.19;;;-3.10;83.28
44198;BME280;30157;55.512;37.764;2023-01-28T14:23:50;100604.47;;;-2.95;83.46
44198;BME280;30157;55.512;37.764;2023-01-28T14:31:44;100599.16;;;-2.84;83.07
44198;BME280;30157;55.512;37.764;2023-01-28T14:34:21;100584.44;;;-2.90;83.35
44198;BME280;30157;55.512;37.764;2023-01-28T14:36:50;100607.78;;;-2.82;83.34
44198;BME280;30157;55.512;37.764;2023-01-28T14:39:21;100611.59;;;-2.89;83.46
44198;BME280;30157;55.512;37.764;2023-01-28T14:41:51;100619.81;;;-2.93;84.04
44198;BME280;30157;55.512;37.764;2023-01-28T14:44:28;100614.22;;;-2.88;83.68
44198;BME280;30157;55.512;37.764;2023-01-28T14:47:06;100606.88;;;-2.83;83.55
44198;BME280;30157;55.512;37.764;2023-01-28T14:50:13;100463.47;;;-3.72;83.35
44198;BME280;30157;55.512;37.764;2023-01-28T14:58:28;100599.94;;;-2.85;83.46
44198;BME280;30157;55.512;37.764;2023-01-28T15:00:57;100545.81;;;-3.26;83.63
44198;BME280;30157;55.512;37.764;2023-01-28T15:03:25;100606.00;;;-2.83;83.48
44198;BME280;30157;55.512;37.764;2023-01-28T15:06:02;100500.03;;;-3.41;83.54